createdAt,value
2023-02-11T00:00:16.339Z,6.22
2023-02-11T00:03:02.778Z,6.21
2023-02-11T00:06:00.180Z,6.09
2023-02-11T00:08:46.864Z,6.16
2023-02-11T00:11:33.941Z,6.28
2023-02-11T00:14:20.138Z,6.16
2023-02-11T00:17:06.860Z,6.19
2023-02-11T00:19:53.720Z,6.17
2023-02-11T00:22:41.263Z,6.14
2023-02-11T00:25:27.792Z,6.08
2023-02-11T00:28:14.389Z,6.09
2023-02-11T00:31:02.438Z,6.11
2023-02-11T00:33:49.204Z,6.15
2023-02-11T00:36:35.814Z,6.08
2023-02-11T00:39:23.888Z,6.04
2023-02-11T00:42:12.588Z,6.08
2023-02-11T00:44:58.772Z,6.04
2023-02-11T00:47:45.191Z,6.07
2023-02-11T00:50:31.658Z,6.07
2023-02-11T00:53:18.234Z,6.07
2023-02-11T00:56:06.888Z,6.15
2023-02-11T00:58:54.023Z,6.22
2023-02-11T01:01:40.561Z,6.16
2023-02-11T01:04:28.837Z,6.08
2023-02-11T01:07:15.502Z,6.05
2023-02-11T01:10:01.913Z,6.12
2023-02-11T01:12:51.254Z,6.04
2023-02-11T01:15:37.919Z,6.03
2023-02-11T01:18:25.181Z,6.04
2023-02-11T01:21:11.956Z,6.04
2023-02-11T01:23:58.729Z,5.97
2023-02-11T01:26:44.953Z,5.97
2023-02-11T01:29:32.977Z,5.90
2023-02-11T01:32:19.667Z,5.90
2023-02-11T01:35:06.767Z,5.80
2023-02-11T01:37:55.246Z,5.78
2023-02-11T01:40:41.631Z,5.89
2023-02-11T01:43:32.165Z,5.81
2023-02-11T01:46:29.576Z,5.96
2023-02-11T01:49:19.804Z,6.01
2023-02-11T01:52:13.775Z,6.03
2023-02-11T01:55:21.792Z,5.98
2023-02-11T01:58:08.833Z,6.02
2023-02-11T02:00:56.456Z,6.00
2023-02-11T02:03:47.713Z,5.96
2023-02-11T02:06:36.773Z,6.02
2023-02-11T02:09:26.649Z,5.95
2023-02-11T02:12:13.162Z,5.84
2023-02-11T02:15:22.585Z,5.89
2023-02-11T02:18:28.806Z,5.78
2023-02-11T02:22:00.164Z,5.84
2023-02-11T02:25:01.047Z,5.74
2023-02-11T02:27:54.003Z,5.72
2023-02-11T02:30:52.870Z,5.73
2023-02-11T02:33:48.681Z,5.83
2023-02-11T02:36:41.874Z,5.74
2023-02-11T02:39:32.718Z,5.74
2023-02-11T02:42:21.410Z,5.81
2023-02-11T02:45:10.288Z,5.75
2023-02-11T02:47:57.060Z,5.81
2023-02-11T02:50:45.306Z,5.74
2023-02-11T02:53:45.824Z,5.58
2023-02-11T02:56:41.604Z,5.65
2023-02-11T02:59:42.166Z,5.46
2023-02-11T03:02:34.627Z,5.40
2023-02-11T03:05:27.568Z,5.39
2023-02-11T03:08:21.037Z,5.43
2023-02-11T03:11:10.714Z,5.35
2023-02-11T03:14:02.412Z,5.33
2023-02-11T03:16:50.307Z,5.26
2023-02-11T03:19:40.115Z,5.24
2023-02-11T03:22:31.581Z,5.22
2023-02-11T03:25:21.707Z,5.21
2023-02-11T03:28:15.323Z,5.12
2023-02-11T03:31:10.778Z,5.05
2023-02-11T03:34:03.555Z,4.99
2023-02-11T03:36:53.902Z,4.95
2023-02-11T03:39:46.179Z,4.97
2023-02-11T03:42:41.300Z,4.89
2023-02-11T03:45:29.645Z,4.94
2023-02-11T03:48:19.372Z,4.88
2023-02-11T03:51:10.698Z,4.94
2023-02-11T03:54:00.900Z,4.91
2023-02-11T03:56:52.106Z,4.94
2023-02-11T03:59:54.102Z,4.93
2023-02-11T04:02:42.178Z,4.92
2023-02-11T04:05:28.690Z,4.88
2023-02-11T04:08:15.431Z,4.87
2023-02-11T04:11:01.854Z,4.77
2023-02-11T04:13:48.492Z,4.76
2023-02-11T04:16:36.509Z,4.73
2023-02-11T04:19:22.843Z,4.81
2023-02-11T04:22:09.569Z,4.89
2023-02-11T04:24:56.170Z,4.80
2023-02-11T04:27:42.541Z,4.84
2023-02-11T04:30:29.107Z,4.94
2023-02-11T04:33:17.082Z,4.79
2023-02-11T04:36:03.592Z,4.88
2023-02-11T04:38:50.130Z,4.87
2023-02-11T04:41:36.688Z,4.90
2023-02-11T04:44:23.417Z,4.87
2023-02-11T04:47:09.489Z,4.90
2023-02-11T04:49:57.598Z,4.96
2023-02-11T04:52:44.308Z,5.06
2023-02-11T04:55:30.892Z,5.06
2023-02-11T04:58:17.596Z,5.00
2023-02-11T05:01:07.975Z,5.00
2023-02-11T05:03:54.485Z,5.04
2023-02-11T05:06:42.468Z,4.95
2023-02-11T05:09:29.477Z,4.94
2023-02-11T05:12:15.842Z,4.93
2023-02-11T05:15:02.589Z,5.03
2023-02-11T05:17:49.016Z,5.07
2023-02-11T05:20:35.563Z,4.98
2023-02-11T05:23:23.400Z,4.92
2023-02-11T05:26:10.529Z,4.95
2023-02-11T05:28:57.635Z,5.02
2023-02-11T05:31:43.773Z,5.04
2023-02-11T05:34:30.390Z,5.03
2023-02-11T05:37:16.937Z,4.92
2023-02-11T05:40:05.155Z,4.97
2023-02-11T05:42:51.758Z,5.00
2023-02-11T05:45:38.865Z,5.01
2023-02-11T05:48:25.071Z,4.94
2023-02-11T05:51:12.047Z,5.10
2023-02-11T05:53:58.656Z,5.03
2023-02-11T05:56:46.652Z,4.95
2023-02-11T05:59:33.252Z,5.09
2023-02-11T06:02:19.856Z,5.01
2023-02-11T06:05:06.787Z,4.90
2023-02-11T06:07:53.240Z,4.96
2023-02-11T06:10:42.418Z,4.98
2023-02-11T06:13:30.313Z,4.99
2023-02-11T06:16:16.868Z,5.10
2023-02-11T06:19:04.101Z,5.04
2023-02-11T06:21:50.788Z,5.22
2023-02-11T06:24:58.939Z,5.26
2023-02-11T06:27:44.143Z,5.09
2023-02-11T06:30:32.043Z,5.14
2023-02-11T06:33:18.606Z,5.14
2023-02-11T06:36:06.899Z,5.20
2023-02-11T06:38:53.967Z,5.24
2023-02-11T06:41:40.854Z,5.29
2023-02-11T06:44:27.748Z,5.35
2023-02-11T06:47:15.819Z,5.39
2023-02-11T06:50:07.332Z,5.55
2023-02-11T06:52:54.628Z,5.52
2023-02-11T06:55:41.345Z,5.38
2023-02-11T06:58:28.008Z,5.39
2023-02-11T07:01:17.209Z,5.36
2023-02-11T07:04:05.198Z,5.39
2023-02-11T07:06:51.722Z,5.26
2023-02-11T07:09:37.965Z,5.27
2023-02-11T07:12:24.471Z,5.33
2023-02-11T07:15:11.199Z,5.36
2023-02-11T07:17:57.805Z,5.36
2023-02-11T07:20:45.923Z,5.30
2023-02-11T07:23:32.518Z,5.27
2023-02-11T07:26:22.553Z,5.34
2023-02-11T07:29:08.788Z,5.28
2023-02-11T07:31:55.353Z,5.28
2023-02-11T07:34:41.903Z,5.21
2023-02-11T07:37:29.666Z,5.29
2023-02-11T07:40:16.098Z,5.22
2023-02-11T07:43:02.959Z,5.24
2023-02-11T07:45:49.429Z,5.30
2023-02-11T07:48:36.329Z,5.38
2023-02-11T07:51:25.052Z,5.36
2023-02-11T07:54:13.191Z,5.38
2023-02-11T07:56:59.763Z,5.39
2023-02-11T07:59:46.653Z,5.41
2023-02-11T08:02:33.109Z,5.51
2023-02-11T08:05:19.496Z,5.48
2023-02-11T08:08:06.386Z,5.48
2023-02-11T08:10:54.425Z,5.49
2023-02-11T08:13:41.708Z,5.49
2023-02-11T08:16:30.327Z,5.49
2023-02-11T08:19:17.691Z,5.62
2023-02-11T08:22:03.826Z,5.73
2023-02-11T08:24:52.386Z,5.77
2023-02-11T08:27:40.347Z,5.94
2023-02-11T08:30:27.703Z,5.91
2023-02-11T08:33:14.136Z,5.97
2023-02-11T08:36:01.043Z,5.92
2023-02-11T08:38:47.712Z,5.86
2023-02-11T08:41:35.664Z,5.98
2023-02-11T08:44:24.565Z,6.04
2023-02-11T08:47:10.929Z,6.13
2023-02-11T08:49:57.512Z,5.99
2023-02-11T08:52:44.584Z,6.21
2023-02-11T08:55:31.068Z,6.18
2023-02-11T08:58:19.260Z,6.17
2023-02-11T09:01:12.323Z,6.26
2023-02-11T09:03:59.446Z,6.32
2023-02-11T09:06:46.663Z,6.45
2023-02-11T09:09:33.367Z,6.20
2023-02-11T09:12:19.975Z,6.38
2023-02-11T09:15:07.097Z,6.54
2023-02-11T09:17:55.124Z,6.52
2023-02-11T09:20:41.860Z,6.57
2023-02-11T09:23:28.409Z,6.62
2023-02-11T09:26:17.772Z,6.67
2023-02-11T09:29:05.493Z,6.79
2023-02-11T09:31:52.640Z,6.77
2023-02-11T09:34:41.726Z,6.79
2023-02-11T09:37:28.591Z,6.80
2023-02-11T09:40:17.495Z,6.76
2023-02-11T09:43:09.478Z,6.82
2023-02-11T09:45:57.463Z,6.85
2023-02-11T09:48:47.382Z,6.84
2023-02-11T09:51:43.262Z,6.84
2023-02-11T09:54:35.399Z,6.96
2023-02-11T09:57:28.619Z,7.14
2023-02-11T10:00:22.814Z,7.19
2023-02-11T10:03:32.683Z,7.35
2023-02-11T10:06:33.845Z,7.40
2023-02-11T10:09:34.107Z,7.41
2023-02-11T10:12:38.145Z,7.53
2023-02-11T10:15:41.279Z,7.67
2023-02-11T10:18:46.678Z,7.67
2023-02-11T10:21:38.658Z,7.60
2023-02-11T10:24:28.247Z,7.70
2023-02-11T10:27:20.373Z,7.83
2023-02-11T10:30:18.939Z,7.77
2023-02-11T10:33:16.378Z,7.82
2023-02-11T10:36:02.715Z,7.85
2023-02-11T10:38:49.268Z,7.93
2023-02-11T10:41:43.064Z,8.08
2023-02-11T10:44:33.187Z,8.11
2023-02-11T10:47:23.372Z,8.31
2023-02-11T10:50:20.978Z,8.22
2023-02-11T10:53:20.424Z,8.39
2023-02-11T10:56:08.320Z,8.44
2023-02-11T10:59:02.768Z,8.43
2023-02-11T11:01:53.871Z,8.67
2023-02-11T11:04:44.005Z,8.79
2023-02-11T11:07:32.680Z,9.17
2023-02-11T11:10:28.373Z,9.47
2023-02-11T11:13:29.211Z,9.42
2023-02-11T11:16:23.157Z,9.50
2023-02-11T11:19:23.991Z,9.21
2023-02-11T11:22:21.725Z,9.56
2023-02-11T11:25:22.784Z,9.32
2023-02-11T11:28:22.901Z,9.52
2023-02-11T11:31:16.418Z,9.44
2023-02-11T11:34:24.257Z,9.50
2023-02-11T11:37:14.126Z,9.90
2023-02-11T11:40:08.403Z,9.75
2023-02-11T11:43:20.231Z,9.84
2023-02-11T11:46:12.286Z,9.80
2023-02-11T11:49:11.295Z,9.90
2023-02-11T11:52:11.235Z,10.07
2023-02-11T11:55:05.978Z,10.16
2023-02-11T11:57:52.732Z,10.19
2023-02-11T12:00:44.266Z,9.85
2023-02-11T12:04:18.388Z,9.82
2023-02-11T12:07:18.615Z,9.78
2023-02-11T12:10:34.256Z,9.67
2023-02-11T12:13:33.030Z,9.86
2023-02-11T12:16:29.724Z,9.77
2023-02-11T12:19:48.857Z,9.63
2023-02-11T12:22:43.113Z,9.70
2023-02-11T12:25:36.292Z,9.66
2023-02-11T12:28:33.552Z,9.55
2023-02-11T12:31:31.341Z,9.67
2023-02-11T12:34:41.135Z,9.74
2023-02-11T12:37:41.418Z,9.68
2023-02-11T12:40:34.972Z,9.87
2023-02-11T12:43:24.554Z,9.85
2023-02-11T12:46:39.071Z,10.20
2023-02-11T12:49:51.945Z,10.58
2023-02-11T12:52:57.686Z,10.47
2023-02-11T12:55:48.022Z,10.14
2023-02-11T12:58:45.069Z,10.09
2023-02-11T13:01:37.259Z,10.34
2023-02-11T13:04:29.940Z,10.43
2023-02-11T13:07:24.116Z,10.48
2023-02-11T13:10:26.421Z,10.43
2023-02-11T13:13:19.286Z,10.60
2023-02-11T13:16:07.947Z,10.55
2023-02-11T13:19:03.818Z,10.75
2023-02-11T13:22:01.940Z,11.01
2023-02-11T13:24:55.781Z,10.93
2023-02-11T13:27:50.564Z,11.06
2023-02-11T13:30:46.974Z,10.99
2023-02-11T13:33:36.046Z,11.12
2023-02-11T13:36:27.659Z,10.94
2023-02-11T13:39:22.338Z,11.32
2023-02-11T13:42:18.080Z,11.70
2023-02-11T13:45:19.102Z,11.23
2023-02-11T13:48:08.278Z,11.23
2023-02-11T13:50:58.338Z,11.38
2023-02-11T13:53:48.441Z,11.48
2023-02-11T13:56:36.769Z,11.38
2023-02-11T13:59:47.792Z,11.32
2023-02-11T14:02:52.505Z,11.23
2023-02-11T14:05:56.909Z,11.21
2023-02-11T14:09:03.487Z,10.88
2023-02-11T14:11:51.605Z,11.11
2023-02-11T14:15:15.849Z,11.11
2023-02-11T14:18:04.788Z,11.11
2023-02-11T14:20:51.582Z,11.43
2023-02-11T14:23:38.664Z,11.23
2023-02-11T14:26:35.130Z,10.91
2023-02-11T14:29:29.780Z,11.19
2023-02-11T14:32:32.692Z,10.93
2023-02-11T14:35:30.498Z,10.80
2023-02-11T14:38:25.983Z,11.02
2023-02-11T14:41:21.133Z,11.31
2023-02-11T14:44:15.159Z,11.06
2023-02-11T14:47:02.245Z,11.20
2023-02-11T14:49:50.654Z,11.10
2023-02-11T14:52:40.144Z,11.18
2023-02-11T14:55:33.169Z,10.98
2023-02-11T14:58:22.265Z,11.11
2023-02-11T15:01:26.959Z,10.90
2023-02-11T15:04:24.776Z,10.81
2023-02-11T15:07:14.696Z,10.76
2023-02-11T15:10:03.398Z,10.74
2023-02-11T15:12:51.223Z,10.53
2023-02-11T15:15:40.964Z,10.67
2023-02-11T15:18:35.119Z,10.69
2023-02-11T15:21:24.728Z,10.55
2023-02-11T15:24:25.293Z,10.55
2023-02-11T15:27:14.589Z,10.72
2023-02-11T15:30:01.389Z,10.66
2023-02-11T15:32:48.595Z,10.70
2023-02-11T15:35:38.055Z,10.68
2023-02-11T15:38:24.848Z,10.60
2023-02-11T15:41:34.757Z,10.54
2023-02-11T15:44:30.526Z,10.43
2023-02-11T15:47:21.870Z,10.32
2023-02-11T15:50:21.739Z,10.16
2023-02-11T15:53:24.291Z,10.36
2023-02-11T15:56:15.773Z,9.87
2023-02-11T15:59:13.051Z,10.06
2023-02-11T16:02:08.514Z,10.00
2023-02-11T16:04:57.644Z,9.75
2023-02-11T16:07:46.935Z,9.63
2023-02-11T16:10:36.153Z,9.68
2023-02-11T16:13:23.850Z,9.54
2023-02-11T16:16:20.286Z,9.60
2023-02-11T16:19:19.263Z,9.58
2023-02-11T16:22:11.292Z,9.64
2023-02-11T16:25:00.492Z,9.54
2023-02-11T16:27:51.746Z,9.54
2023-02-11T16:30:40.439Z,9.31
2023-02-11T16:33:27.104Z,9.35
2023-02-11T16:36:18.086Z,9.24
2023-02-11T16:39:05.107Z,9.08
2023-02-11T16:41:52.774Z,8.95
2023-02-11T16:44:39.984Z,8.72
2023-02-11T16:47:28.614Z,8.95
2023-02-11T16:50:23.238Z,8.75
2023-02-11T16:53:11.763Z,8.54
2023-02-11T16:55:58.730Z,8.53
2023-02-11T16:58:46.471Z,8.54
2023-02-11T17:01:33.522Z,8.40
2023-02-11T17:04:23.088Z,8.52
2023-02-11T17:07:09.840Z,8.55
2023-02-11T17:09:58.753Z,8.57
2023-02-11T17:12:45.376Z,8.60
2023-02-11T17:15:32.032Z,8.50
2023-02-11T17:18:18.661Z,8.52
2023-02-11T17:21:07.603Z,8.45
2023-02-11T17:23:53.937Z,8.43
2023-02-11T17:26:42.949Z,8.43
2023-02-11T17:29:30.141Z,8.42
2023-02-11T17:32:16.696Z,8.40
2023-02-11T17:35:03.449Z,8.46
2023-02-11T17:37:50.250Z,8.41
2023-02-11T17:40:36.765Z,8.50
2023-02-11T17:43:24.902Z,8.42
2023-02-11T17:46:11.524Z,8.41
2023-02-11T17:48:59.788Z,8.40
2023-02-11T17:51:46.589Z,8.44
2023-02-11T17:54:33.126Z,8.39
2023-02-11T17:57:19.861Z,8.28
2023-02-11T18:00:09.690Z,8.36
2023-02-11T18:03:03.263Z,8.42
2023-02-11T18:05:51.051Z,8.40
2023-02-11T18:08:38.163Z,8.27
2023-02-11T18:11:25.148Z,8.14
2023-02-11T18:14:12.289Z,8.15
2023-02-11T18:17:00.340Z,8.18
2023-02-11T18:19:47.476Z,8.20
2023-02-11T18:22:39.114Z,8.22
2023-02-11T18:25:26.061Z,8.17
2023-02-11T18:28:12.723Z,8.11
2023-02-11T18:30:59.965Z,8.06
2023-02-11T18:33:48.466Z,8.08
2023-02-11T18:36:35.961Z,8.02
2023-02-11T18:39:24.175Z,8.04
2023-02-11T18:42:11.363Z,7.93
2023-02-11T18:44:57.758Z,7.97
2023-02-11T18:47:44.929Z,7.80
2023-02-11T18:50:33.152Z,7.81
2023-02-11T18:53:19.844Z,7.93
2023-02-11T18:56:10.184Z,7.83
2023-02-11T18:58:57.267Z,7.89
2023-02-11T19:01:46.805Z,7.81
2023-02-11T19:04:33.537Z,7.92
2023-02-11T19:07:21.373Z,7.96
2023-02-11T19:10:09.177Z,8.05
2023-02-11T19:12:56.259Z,7.84
2023-02-11T19:15:43.700Z,7.83
2023-02-11T19:18:30.170Z,7.93
2023-02-11T19:21:16.814Z,7.99
2023-02-11T19:24:07.714Z,7.83
2023-02-11T19:26:57.722Z,7.74
2023-02-11T19:29:44.254Z,7.82
2023-02-11T19:32:31.277Z,7.82
2023-02-11T19:35:17.866Z,7.81
2023-02-11T19:38:05.311Z,7.82
2023-02-11T19:40:57.887Z,7.81
2023-02-11T19:43:44.365Z,7.76
2023-02-11T19:46:33.348Z,7.81
2023-02-11T19:49:23.180Z,7.84
2023-02-11T19:52:09.790Z,7.88
2023-02-11T19:54:56.219Z,7.73
2023-02-11T19:57:44.311Z,7.82
2023-02-11T20:00:31.195Z,7.89
2023-02-11T20:03:17.700Z,7.87
2023-02-11T20:06:06.665Z,7.85
2023-02-11T20:08:58.232Z,7.81
2023-02-11T20:11:45.806Z,8.03
2023-02-11T20:14:33.696Z,7.93
2023-02-11T20:17:20.088Z,7.96
2023-02-11T20:20:08.248Z,7.74
2023-02-11T20:22:55.013Z,7.73
2023-02-11T20:25:41.538Z,7.82
2023-02-11T20:28:28.198Z,7.76
2023-02-11T20:31:16.754Z,7.72
2023-02-11T20:34:03.479Z,7.70
2023-02-11T20:36:52.670Z,7.66
2023-02-11T20:39:41.807Z,7.69
2023-02-11T20:42:28.435Z,7.62
2023-02-11T20:45:14.799Z,7.57
2023-02-11T20:48:02.593Z,7.54
2023-02-11T20:50:49.538Z,7.65
2023-02-11T20:53:37.250Z,7.63
2023-02-11T20:56:25.622Z,7.64
2023-02-11T20:59:13.969Z,7.60
2023-02-11T21:02:01.612Z,7.79
2023-02-11T21:04:49.540Z,7.64
2023-02-11T21:07:38.792Z,7.59
2023-02-11T21:10:25.862Z,7.64
2023-02-11T21:13:12.209Z,7.54
2023-02-11T21:15:59.161Z,7.50
2023-02-11T21:18:46.001Z,7.51
2023-02-11T21:21:36.884Z,7.47
2023-02-11T21:24:23.733Z,7.46
2023-02-11T21:27:10.371Z,7.48
2023-02-11T21:29:56.990Z,7.48
2023-02-11T21:32:43.759Z,7.51
2023-02-11T21:35:32.909Z,7.59
2023-02-11T21:38:20.605Z,7.62
2023-02-11T21:41:07.500Z,7.60
2023-02-11T21:43:54.119Z,7.61
2023-02-11T21:46:41.004Z,7.64
2023-02-11T21:49:29.087Z,7.68
2023-02-11T21:52:17.131Z,7.73
2023-02-11T21:55:06.045Z,7.80
2023-02-11T21:57:52.270Z,7.57
2023-02-11T22:00:39.477Z,7.52
2023-02-11T22:03:26.046Z,7.57
2023-02-11T22:06:15.369Z,7.49
2023-02-11T22:09:03.618Z,7.53
2023-02-11T22:11:51.579Z,7.51
2023-02-11T22:14:38.960Z,7.57
2023-02-11T22:17:29.090Z,7.52
2023-02-11T22:20:17.062Z,7.43
2023-02-11T22:23:03.642Z,7.44
2023-02-11T22:25:50.317Z,7.42
2023-02-11T22:28:40.574Z,7.35
2023-02-11T22:31:27.994Z,7.44
2023-02-11T22:34:14.507Z,7.43
2023-02-11T22:37:02.315Z,7.43
2023-02-11T22:39:48.807Z,7.43
2023-02-11T22:42:35.840Z,7.47
2023-02-11T22:45:23.797Z,7.59
2023-02-11T22:48:10.314Z,7.60
2023-02-11T22:50:56.842Z,7.65
2023-02-11T22:53:44.448Z,7.47
2023-02-11T22:56:33.450Z,7.49
2023-02-11T23:02:32.425Z,7.44
2023-02-11T23:05:18.931Z,7.41
2023-02-11T23:08:05.895Z,7.52
2023-02-11T23:10:52.605Z,7.54
2023-02-11T23:13:41.678Z,7.60
2023-02-11T23:16:30.771Z,7.52
2023-02-11T23:19:19.886Z,7.43
2023-02-11T23:22:06.842Z,7.55
2023-02-11T23:24:53.402Z,7.55
2023-02-11T23:27:39.975Z,7.61
2023-02-11T23:30:26.924Z,7.66
2023-02-11T23:33:14.374Z,7.65
2023-02-11T23:36:02.914Z,7.66
2023-02-11T23:38:49.589Z,7.49
2023-02-11T23:41:35.912Z,7.57
2023-02-11T23:44:22.488Z,7.56
2023-02-11T23:47:09.187Z,7.43
2023-02-11T23:49:58.091Z,7.43
2023-02-11T23:52:47.459Z,7.34
2023-02-11T23:55:39.848Z,7.25
2023-02-11T23:58:26.314Z,7.32
